Time;durP1;ratioP1;P1;durP2;ratioP2;P2;SDS_P1;SDS_P2;PMS_P1;PMS_P2;Temp;Humidity;BMP_temperature;BMP_pressure;BME280_temperature;BME280_humidity;BME280_pressure;Samples;Min_cycle;Max_cycle;Signal;HPM_P1;HPM_P2
2023/04/14 00:02:19;;;;;;;;;;;5.90;99.90;;;;;;5129223;27;19920;-51
2023/04/14 00:04:50;;;;;;;;;;;5.80;99.90;;;;;;5125944;27;19926;-53
2023/04/14 00:07:15;;;;;;;;;;;5.80;99.90;;;;;;5129274;27;19930;-49
2023/04/14 00:09:42;;;;;;;;;;;5.80;99.90;;;;;;5126036;27;20521;-52
2023/04/14 00:12:08;;;;;;;;;;;5.70;99.90;;;;;;5128079;27;19930;-49
2023/04/14 00:14:34;;;;;;;;;;;5.70;99.90;;;;;;5127554;27;19928;-50
2023/04/14 00:17:00;;;;;;;;;;;5.70;99.90;;;;;;5128723;27;19975;-48
2023/04/14 00:19:25;;;;;;;;;;;5.60;99.90;;;;;;5127009;27;19919;-52
2023/04/14 00:21:51;;;;;;;;;;;5.60;99.90;;;;;;5126687;27;19996;-49
2023/04/14 00:24:17;;;;;;;;;;;5.60;99.90;;;;;;5127607;27;19928;-50
2023/04/14 00:26:42;;;;;;;;;;;5.50;99.90;;;;;;5126292;27;19930;-50
2023/04/14 00:29:08;;;;;;;;;;;5.50;99.90;;;;;;5107765;27;19919;-49
2023/04/14 00:31:34;;;;;;;;;;;5.50;99.90;;;;;;5128284;27;19919;-50
2023/04/14 00:33:59;;;;;;;;;;;5.50;99.90;;;;;;5128220;27;19933;-48
2023/04/14 00:36:25;;;;;;;;;;;5.50;99.90;;;;;;5127293;27;19927;-52
2023/04/14 00:38:51;;;;;;;;;;;5.50;99.90;;;;;;5123899;27;19955;-52
2023/04/14 00:41:17;;;;;;;;;;;5.50;99.90;;;;;;5126900;27;19962;-49
2023/04/14 00:43:42;;;;;;;;;;;5.60;99.90;;;;;;5127630;27;19923;-49
2023/04/14 00:46:08;;;;;;;;;;;5.50;99.90;;;;;;5125984;27;19923;-49
2023/04/14 00:48:34;;;;;;;;;;;5.60;99.90;;;;;;5125207;27;20373;-50
2023/04/14 00:50:59;;;;;;;;;;;5.60;99.90;;;;;;5125945;27;20022;-51
2023/04/14 00:53:26;;;;;;;;;;;5.60;99.90;;;;;;5127220;27;19931;-50
2023/04/14 00:55:51;;;;;;;;;;;5.60;99.90;;;;;;5126232;27;20590;-48
2023/04/14 00:58:17;;;;;;;;;;;5.60;99.90;;;;;;5126170;27;19927;-49
2023/04/14 01:00:42;;;;;;;;;;;5.60;99.90;;;;;;5123432;27;20010;-50
2023/04/14 01:03:08;;;;;;;;;;;5.60;99.90;;;;;;5099665;27;19927;-49
2023/04/14 01:05:33;;;;;;;;;;;5.60;99.90;;;;;;5118356;27;20293;-49
2023/04/14 01:08:00;;;;;;;;;;;5.60;99.90;;;;;;5127320;27;19919;-48
2023/04/14 01:10:29;;;;;;;;;;;5.60;99.90;;;;;;5131562;27;19936;-48
2023/04/14 01:13:13;;;;;;;;;;;5.60;99.90;;;;;;5126580;27;19927;-48
2023/04/14 01:15:38;;;;;;;;;;;5.60;99.90;;;;;;5122165;27;20019;-49
2023/04/14 01:18:09;;;;;;;;;;;5.60;99.90;;;;;;5124435;27;20006;-48
2023/04/14 01:20:39;;;;;;;;;;;5.60;99.90;;;;;;5124335;27;19958;-48
2023/04/14 01:23:06;;;;;;;;;;;5.60;99.90;;;;;;5124567;27;19923;-50
2023/04/14 01:26:04;;;;;;;;;;;5.60;99.90;;;;;;5108662;27;19916;-53
2023/04/14 01:28:32;;;;;;;;;;;5.60;99.90;;;;;;5064702;28;19927;-50
2023/04/14 01:31:06;;;;;;;;;;;5.60;99.90;;;;;;5065107;28;20402;-48
2023/04/14 01:33:37;;;;;;;;;;;5.50;99.90;;;;;;5062853;28;19931;-52
2023/04/14 01:36:05;;;;;;;;;;;5.50;99.90;;;;;;5059763;28;20339;-49
2023/04/14 01:38:32;;;;;;;;;;;5.50;99.90;;;;;;5056756;28;19939;-53
2023/04/14 01:41:01;;;;;;;;;;;5.50;99.90;;;;;;5044857;28;19994;-50
2023/04/14 01:43:29;;;;;;;;;;;5.60;99.90;;;;;;5058853;28;19920;-48
2023/04/14 01:45:57;;;;;;;;;;;5.60;99.90;;;;;;5058906;28;21135;-51
2023/04/14 01:48:23;;;;;;;;;;;5.60;99.90;;;;;;5051560;28;20417;-52
2023/04/14 01:50:49;;;;;;;;;;;5.50;99.90;;;;;;5061001;28;19978;-48
2023/04/14 01:53:17;;;;;;;;;;;5.50;99.90;;;;;;5060701;28;19999;-50
2023/04/14 01:55:43;;;;;;;;;;;5.50;99.90;;;;;;5058960;28;20447;-51
2023/04/14 01:58:09;;;;;;;;;;;5.50;99.90;;;;;;5059794;28;19967;-51
2023/04/14 02:00:35;;;;;;;;;;;5.50;99.90;;;;;;5061439;28;19931;-48
2023/04/14 02:03:02;;;;;;;;;;;5.50;99.90;;;;;;5060085;27;19975;-50
2023/04/14 02:05:29;;;;;;;;;;;5.50;99.90;;;;;;5118966;27;19920;-50
2023/04/14 02:07:56;;;;;;;;;;;5.50;99.90;;;;;;5122131;27;20442;-51
2023/04/14 02:10:22;;;;;;;;;;;5.50;99.90;;;;;;5124963;27;19931;-48
2023/04/14 02:12:49;;;;;;;;;;;5.50;99.90;;;;;;5124045;27;19919;-48
2023/04/14 02:15:16;;;;;;;;;;;5.50;99.90;;;;;;5124748;27;19919;-48
2023/04/14 02:17:43;;;;;;;;;;;5.50;99.90;;;;;;5122329;27;20541;-53
2023/04/14 02:20:09;;;;;;;;;;;5.50;99.90;;;;;;5124002;27;20433;-49
2023/04/14 02:22:35;;;;;;;;;;;5.50;99.90;;;;;;5124616;27;19920;-48
2023/04/14 02:25:00;;;;;;;;;;;5.50;99.90;;;;;;5123146;27;19964;-48
2023/04/14 02:27:45;;;;;;;;;;;5.50;99.90;;;;;;5124257;27;19920;-48
2023/04/14 02:30:12;;;;;;;;;;;5.40;99.90;;;;;;5123501;27;19919;-49
2023/04/14 02:32:39;;;;;;;;;;;5.40;99.90;;;;;;5125186;27;19927;-52
2023/04/14 02:35:12;;;;;;;;;;;5.40;99.90;;;;;;5123437;27;19926;-48
2023/04/14 02:37:42;;;;;;;;;;;5.40;99.90;;;;;;5125255;27;19924;-50
2023/04/14 02:40:12;;;;;;;;;;;5.30;99.90;;;;;;5121446;27;19919;-50
2023/04/14 02:42:42;;;;;;;;;;;5.20;99.90;;;;;;5121152;27;19919;-52
2023/04/14 02:45:10;;;;;;;;;;;5.20;99.90;;;;;;5119713;27;19927;-49
2023/04/14 02:47:37;;;;;;;;;;;5.10;99.90;;;;;;5121604;27;20006;-48
2023/04/14 02:50:03;;;;;;;;;;;5.00;99.90;;;;;;5125724;27;19926;-48
2023/04/14 02:52:30;;;;;;;;;;;5.00;99.90;;;;;;5127466;27;19995;-48
2023/04/14 02:54:57;;;;;;;;;;;4.90;99.90;;;;;;5106185;27;19950;-50
2023/04/14 02:57:24;;;;;;;;;;;4.90;99.90;;;;;;5124250;27;19919;-49
2023/04/14 02:59:50;;;;;;;;;;;4.90;99.90;;;;;;5121540;27;19931;-51
2023/04/14 03:02:16;;;;;;;;;;;4.80;99.90;;;;;;5125737;27;19927;-48
2023/04/14 03:04:41;;;;;;;;;;;4.80;99.90;;;;;;5124379;27;19936;-48
2023/04/14 03:07:07;;;;;;;;;;;4.70;99.90;;;;;;5127745;27;19919;-53
2023/04/14 03:09:33;;;;;;;;;;;4.70;99.90;;;;;;5125795;27;19919;-49
2023/04/14 03:11:59;;;;;;;;;;;4.60;99.90;;;;;;5124486;27;19927;-52
2023/04/14 03:14:26;;;;;;;;;;;4.60;99.90;;;;;;5124819;28;19920;-48
2023/04/14 03:16:52;;;;;;;;;;;4.50;99.90;;;;;;5127509;27;19939;-52
2023/04/14 03:19:19;;;;;;;;;;;4.50;99.90;;;;;;5127023;27;19919;-51
2023/04/14 03:21:45;;;;;;;;;;;4.50;99.90;;;;;;5107899;27;19923;-48
2023/04/14 03:24:13;;;;;;;;;;;4.40;99.90;;;;;;5127880;27;20486;-51
2023/04/14 03:26:40;;;;;;;;;;;4.40;99.90;;;;;;5129051;27;19923;-52
2023/04/14 03:29:06;;;;;;;;;;;4.30;99.90;;;;;;5127608;27;19919;-49
2023/04/14 03:31:32;;;;;;;;;;;4.30;99.90;;;;;;5128358;27;19923;-48
2023/04/14 03:34:00;;;;;;;;;;;4.20;99.90;;;;;;5127611;27;19931;-50
2023/04/14 03:36:27;;;;;;;;;;;4.10;99.90;;;;;;5126809;27;19992;-49
2023/04/14 03:38:56;;;;;;;;;;;4.00;99.90;;;;;;5129076;27;19923;-49
2023/04/14 03:41:24;;;;;;;;;;;4.00;99.90;;;;;;5114754;27;19971;-50
2023/04/14 03:43:53;;;;;;;;;;;4.00;99.90;;;;;;5122022;27;20474;-49
2023/04/14 03:46:19;;;;;;;;;;;3.90;99.90;;;;;;5124004;27;19923;-48
2023/04/14 03:48:46;;;;;;;;;;;3.90;99.90;;;;;;5124752;27;19927;-49
2023/04/14 03:51:12;;;;;;;;;;;3.90;99.90;;;;;;5122954;27;19930;-50
2023/04/14 03:53:40;;;;;;;;;;;3.90;99.90;;;;;;5128030;27;19925;-49
2023/04/14 03:56:06;;;;;;;;;;;3.80;99.90;;;;;;5109931;27;20009;-48
2023/04/14 03:58:33;;;;;;;;;;;3.80;99.90;;;;;;5127386;27;20405;-52
2023/04/14 04:00:59;;;;;;;;;;;3.70;99.90;;;;;;5109167;27;19919;-50
2023/04/14 04:03:25;;;;;;;;;;;3.70;99.90;;;;;;5123120;27;20002;-51
2023/04/14 04:05:51;;;;;;;;;;;3.70;99.90;;;;;;5108292;27;20368;-49
2023/04/14 04:08:17;;;;;;;;;;;3.70;99.90;;;;;;5131814;27;20063;-50
2023/04/14 04:10:44;;;;;;;;;;;3.70;99.90;;;;;;5137466;27;19957;-50
2023/04/14 04:13:12;;;;;;;;;;;3.70;99.90;;;;;;5131777;27;20262;-50
2023/04/14 04:15:38;;;;;;;;;;;3.60;99.90;;;;;;5134983;27;19919;-49
2023/04/14 04:18:05;;;;;;;;;;;3.60;99.90;;;;;;5131658;27;19924;-49
2023/04/14 04:20:31;;;;;;;;;;;3.60;99.90;;;;;;5132307;27;19919;-49
2023/04/14 04:22:57;;;;;;;;;;;3.50;99.90;;;;;;5134229;27;20525;-49
2023/04/14 04:25:22;;;;;;;;;;;3.50;99.90;;;;;;5136381;27;20364;-49
2023/04/14 04:27:48;;;;;;;;;;;3.40;99.90;;;;;;5135645;27;19920;-51
2023/04/14 04:30:15;;;;;;;;;;;3.40;99.90;;;;;;5130010;27;19976;-50
2023/04/14 04:32:41;;;;;;;;;;;3.30;99.90;;;;;;5136201;27;20101;-48
2023/04/14 04:35:07;;;;;;;;;;;3.30;99.90;;;;;;5137154;27;20020;-48
2023/04/14 04:37:33;;;;;;;;;;;3.30;99.90;;;;;;5133238;27;19964;-49
2023/04/14 04:39:59;;;;;;;;;;;3.30;99.90;;;;;;5125702;27;19919;-49
2023/04/14 04:42:25;;;;;;;;;;;3.30;99.90;;;;;;5108200;27;19934;-48
2023/04/14 04:44:50;;;;;;;;;;;3.30;99.90;;;;;;5127662;27;20532;-48
2023/04/14 04:47:16;;;;;;;;;;;3.30;99.90;;;;;;5124652;27;19923;-49
2023/04/14 04:49:41;;;;;;;;;;;3.20;99.90;;;;;;5124691;27;19957;-50
2023/04/14 04:52:07;;;;;;;;;;;3.20;99.90;;;;;;5126793;27;19919;-48
2023/04/14 04:54:32;;;;;;;;;;;3.20;99.90;;;;;;5125014;27;19919;-48
2023/04/14 04:56:58;;;;;;;;;;;3.20;99.90;;;;;;5123454;27;19930;-49
2023/04/14 04:59:24;;;;;;;;;;;3.20;99.90;;;;;;5122456;27;19923;-52
2023/04/14 05:01:50;;;;;;;;;;;3.30;99.90;;;;;;5124766;27;19935;-48
2023/04/14 05:04:16;;;;;;;;;;;3.30;99.90;;;;;;5103999;27;19927;-49
2023/04/14 05:06:41;;;;;;;;;;;3.30;99.90;;;;;;5127212;27;20293;-50
2023/04/14 05:09:07;;;;;;;;;;;3.30;99.90;;;;;;5127518;27;19962;-49
2023/04/14 05:11:33;;;;;;;;;;;3.30;99.90;;;;;;5125737;27;19985;-51
2023/04/14 05:13:59;;;;;;;;;;;3.30;99.90;;;;;;5124589;27;19923;-49
2023/04/14 05:16:24;;;;;;;;;;;3.30;99.90;;;;;;5122699;27;20435;-49
2023/04/14 05:18:51;;;;;;;;;;;3.30;99.90;;;;;;5126211;27;19927;-50
2023/04/14 05:21:16;;;;;;;;;;;3.30;99.90;;;;;;5123180;27;19958;-49
2023/04/14 05:23:43;;;;;;;;;;;3.30;99.90;;;;;;5129191;27;20015;-49
2023/04/14 05:26:09;;;;;;;;;;;3.30;99.90;;;;;;5111223;27;20391;-49
2023/04/14 05:28:35;;;;;;;;;;;3.40;99.90;;;;;;5124008;27;20393;-48
2023/04/14 05:31:01;;;;;;;;;;;3.40;99.90;;;;;;5122727;27;19919;-52
2023/04/14 05:33:27;;;;;;;;;;;3.50;99.90;;;;;;5119628;27;19919;-51
2023/04/14 05:35:52;;;;;;;;;;;3.60;99.90;;;;;;5127268;27;20010;-49
2023/04/14 05:38:18;;;;;;;;;;;3.70;99.90;;;;;;5123263;27;19927;-50
2023/04/14 05:40:44;;;;;;;;;;;3.70;99.90;;;;;;5127871;27;20010;-52
2023/04/14 05:43:10;;;;;;;;;;;3.70;99.90;;;;;;5109483;27;19949;-51
2023/04/14 05:45:35;;;;;;;;;;;3.80;99.90;;;;;;5125415;27;19924;-50
2023/04/14 05:48:01;;;;;;;;;;;3.90;99.90;;;;;;5122798;27;19941;-49
2023/04/14 05:50:27;;;;;;;;;;;4.00;99.90;;;;;;5125644;27;19931;-49
2023/04/14 05:52:52;;;;;;;;;;;4.20;99.90;;;;;;5126210;27;19995;-48
2023/04/14 05:55:18;;;;;;;;;;;4.30;99.90;;;;;;5124571;27;19926;-49
2023/04/14 05:57:43;;;;;;;;;;;4.40;99.90;;;;;;5126877;27;19927;-48
2023/04/14 06:00:11;;;;;;;;;;;4.40;99.90;;;;;;5122472;27;19923;-48
2023/04/14 06:02:37;;;;;;;;;;;4.60;99.90;;;;;;5119878;27;19927;-48
2023/04/14 06:05:05;;;;;;;;;;;4.70;99.90;;;;;;5119737;27;19923;-52
2023/04/14 06:07:30;;;;;;;;;;;4.80;99.90;;;;;;5126516;27;20015;-48
2023/04/14 06:09:56;;;;;;;;;;;4.90;99.90;;;;;;5134575;27;19992;-50
2023/04/14 06:12:21;;;;;;;;;;;5.10;99.90;;;;;;5134020;27;20350;-48
2023/04/14 06:14:47;;;;;;;;;;;6.50;99.90;;;;;;5132776;27;20258;-49
2023/04/14 06:17:12;;;;;;;;;;;8.30;99.90;;;;;;5126324;27;19991;-49
2023/04/14 06:19:38;;;;;;;;;;;8.60;99.90;;;;;;5124636;27;19919;-51
2023/04/14 06:22:04;;;;;;;;;;;10.20;99.90;;;;;;5134457;27;19926;-49
2023/04/14 06:24:32;;;;;;;;;;;10.50;99.90;;;;;;5137774;27;19919;-48
2023/04/14 06:26:57;;;;;;;;;;;11.80;99.90;;;;;;5113709;27;20006;-50
2023/04/14 06:29:23;;;;;;;;;;;12.00;99.90;;;;;;5133239;27;19969;-53
2023/04/14 06:31:50;;;;;;;;;;;12.50;99.90;;;;;;5133190;27;19920;-52
2023/04/14 06:34:16;;;;;;;;;;;12.90;99.90;;;;;;5144841;27;19919;-50
2023/04/14 06:36:42;;;;;;;;;;;13.40;99.90;;;;;;5133335;27;19923;-53
2023/04/14 06:39:07;;;;;;;;;;;13.60;99.90;;;;;;5133112;27;19919;-49
2023/04/14 06:41:33;;;;;;;;;;;14.00;99.90;;;;;;5133978;27;19919;-52
2023/04/14 06:43:58;;;;;;;;;;;14.60;99.90;;;;;;5090218;27;20329;-53
2023/04/14 06:46:24;;;;;;;;;;;14.40;99.90;;;;;;5124889;27;19923;-52
2023/04/14 06:48:49;;;;;;;;;;;14.70;99.90;;;;;;5123241;27;19995;-51
2023/04/14 06:51:15;;;;;;;;;;;15.20;99.90;;;;;;5077781;27;19970;-49
2023/04/14 06:53:40;;;;;;;;;;;15.50;99.90;;;;;;5116542;27;20094;-49
2023/04/14 06:56:06;;;;;;;;;;;15.60;99.90;;;;;;5115863;27;19935;-49
2023/04/14 06:58:32;;;;;;;;;;;15.80;99.90;;;;;;5120639;27;19930;-52
2023/04/14 07:00:58;;;;;;;;;;;15.90;99.90;;;;;;5099583;27;19924;-50
2023/04/14 07:03:24;;;;;;;;;;;16.20;99.90;;;;;;5116628;27;19977;-51
2023/04/14 07:05:49;;;;;;;;;;;16.10;99.90;;;;;;5119008;27;19954;-50
2023/04/14 07:08:15;;;;;;;;;;;16.10;99.90;;;;;;5119431;27;19964;-49
2023/04/14 07:10:41;;;;;;;;;;;16.00;99.90;;;;;;5117775;27;19920;-49
2023/04/14 07:13:06;;;;;;;;;;;15.90;99.90;;;;;;5118942;27;20556;-51
2023/04/14 07:15:32;;;;;;;;;;;15.30;99.90;;;;;;5118695;28;20007;-50
2023/04/14 07:17:57;;;;;;;;;;;15.80;99.90;;;;;;5100349;28;19934;-53
2023/04/14 07:20:23;;;;;;;;;;;15.50;99.90;;;;;;5116567;27;19920;-49
2023/04/14 07:22:49;;;;;;;;;;;15.20;99.90;;;;;;5102025;27;19927;-50
2023/04/14 07:25:15;;;;;;;;;;;14.40;99.90;;;;;;5117698;27;19928;-52
2023/04/14 07:27:40;;;;;;;;;;;13.90;99.90;;;;;;5120260;27;20333;-51
2023/04/14 07:30:06;;;;;;;;;;;13.30;99.90;;;;;;5114627;27;20061;-52
2023/04/14 07:32:32;;;;;;;;;;;;;;;;;;5124666;27;19923;-50
2023/04/14 07:34:58;;;;;;;;;;;12.60;99.90;;;;;;5100071;28;20369;-54
2023/04/14 07:37:23;;;;;;;;;;;12.60;99.90;;;;;;5107665;28;19934;-50
2023/04/14 07:39:49;;;;;;;;;;;12.50;99.90;;;;;;5129765;28;20361;-52
2023/04/14 07:42:14;;;;;;;;;;;12.40;99.90;;;;;;5129827;28;20010;-50
2023/04/14 07:44:40;;;;;;;;;;;12.30;99.90;;;;;;5120776;28;20322;-50
2023/04/14 07:47:06;;;;;;;;;;;12.10;99.90;;;;;;5120323;28;19959;-50
2023/04/14 07:49:31;;;;;;;;;;;12.10;99.90;;;;;;5118511;28;20460;-52
2023/04/14 07:51:57;;;;;;;;;;;12.20;99.90;;;;;;5118892;28;19927;-51
2023/04/14 07:54:22;;;;;;;;;;;11.80;99.90;;;;;;5117908;28;19972;-51
2023/04/14 07:56:48;;;;;;;;;;;11.80;99.90;;;;;;5115988;28;19923;-50
2023/04/14 07:59:14;;;;;;;;;;;11.90;99.90;;;;;;5121049;28;20272;-50
2023/04/14 08:01:40;;;;;;;;;;;11.80;99.90;;;;;;5123033;27;20025;-50
2023/04/14 08:04:05;;;;;;;;;;;11.90;99.90;;;;;;5127258;27;20038;-50
2023/04/14 08:06:31;;;;;;;;;;;11.80;99.90;;;;;;5127871;27;20380;-51
2023/04/14 08:08:57;;;;;;;;;;;12.00;99.90;;;;;;5129574;27;20006;-51
2023/04/14 08:11:22;;;;;;;;;;;12.20;99.90;;;;;;5132978;27;20345;-50
2023/04/14 08:13:49;;;;;;;;;;;12.20;99.90;;;;;;5135070;27;19925;-50
2023/04/14 08:16:14;;;;;;;;;;;12.40;99.90;;;;;;5135376;27;20380;-50
2023/04/14 08:18:41;;;;;;;;;;;12.40;99.90;;;;;;5116708;28;19920;-54
2023/04/14 08:21:06;;;;;;;;;;;12.50;99.90;;;;;;5115954;27;19923;-50
2023/04/14 08:23:32;;;;;;;;;;;12.40;99.90;;;;;;5129909;27;19925;-49
2023/04/14 08:25:58;;;;;;;;;;;12.40;99.90;;;;;;5118450;27;19919;-49
2023/04/14 08:28:23;;;;;;;;;;;12.60;99.90;;;;;;5134507;27;19980;-49
2023/04/14 08:30:49;;;;;;;;;;;12.70;99.90;;;;;;5135522;27;19926;-49
2023/04/14 08:33:15;;;;;;;;;;;12.80;99.90;;;;;;5125866;27;19919;-51
2023/04/14 08:35:41;;;;;;;;;;;12.80;99.90;;;;;;5128882;27;19919;-49
2023/04/14 08:38:06;;;;;;;;;;;13.00;99.90;;;;;;5129909;27;19919;-51
2023/04/14 08:40:37;;;;;;;;;;;13.00;99.90;;;;;;5130550;27;19930;-52
2023/04/14 08:43:02;;;;;;;;;;;13.20;99.90;;;;;;5111476;27;19927;-53
2023/04/14 08:45:29;;;;;;;;;;;13.30;99.90;;;;;;5127259;27;19924;-51
2023/04/14 08:47:55;;;;;;;;;;;13.00;99.90;;;;;;5127680;27;20498;-50
2023/04/14 08:50:24;;;;;;;;;;;13.10;99.90;;;;;;5128531;27;19924;-49
2023/04/14 08:52:52;;;;;;;;;;;13.20;99.90;;;;;;5127617;27;20429;-50
2023/04/14 08:55:18;;;;;;;;;;;13.40;99.90;;;;;;5122378;27;19927;-50
2023/04/14 08:57:45;;;;;;;;;;;13.40;99.90;;;;;;5131426;27;20074;-51
2023/04/14 09:00:11;;;;;;;;;;;13.40;99.90;;;;;;5127666;27;19919;-49
2023/04/14 09:02:38;;;;;;;;;;;13.60;99.90;;;;;;5134022;27;20289;-50
2023/04/14 09:05:05;;;;;;;;;;;13.60;99.90;;;;;;5123979;27;19919;-50
2023/04/14 09:07:32;;;;;;;;;;;13.60;99.90;;;;;;5125476;27;19919;-50
2023/04/14 09:09:57;;;;;;;;;;;13.60;99.90;;;;;;5112569;27;19925;-51
2023/04/14 09:12:24;;;;;;;;;;;13.60;99.90;;;;;;5131542;27;19946;-50
2023/04/14 09:14:51;;;;;;;;;;;13.70;99.90;;;;;;5125931;27;19943;-50
2023/04/14 09:17:16;;;;;;;;;;;13.40;99.90;;;;;;5111354;27;19926;-48
2023/04/14 09:19:42;;;;;;;;;;;13.70;99.90;;;;;;5122749;27;20002;-49
2023/04/14 09:22:08;;;;;;;;;;;13.80;99.90;;;;;;5128331;27;19985;-51
2023/04/14 09:24:33;;;;;;;;;;;13.70;99.90;;;;;;5132841;27;19988;-51
2023/04/14 09:27:04;;;;;;;;;;;13.70;99.90;;;;;;5147040;27;20198;-49
2023/04/14 09:29:30;;;;;;;;;;;13.60;99.90;;;;;;5152613;27;20953;-50
2023/04/14 09:31:56;;;;;;;;;;;14.00;99.90;;;;;;5149933;27;20480;-51
2023/04/14 09:34:21;;;;;;;;;;;14.20;99.90;;;;;;5154311;27;20026;-48
2023/04/14 09:37:21;;;;;;;;;;;14.30;99.90;;;;;;5148540;27;19963;-48
2023/04/14 09:39:51;;;;;;;;;;;14.20;99.90;;;;;;5136646;27;20009;-50
2023/04/14 09:42:17;;;;;;;;;;;14.10;99.90;;;;;;5147248;27;19919;-51
2023/04/14 09:44:53;;;;;;;;;;;14.10;99.90;;;;;;5149731;27;20346;-51
2023/04/14 09:47:19;;;;;;;;;;;14.30;99.90;;;;;;5151232;27;19943;-49
2023/04/14 09:49:56;;;;;;;;;;;14.30;99.90;;;;;;5153255;27;19923;-50
2023/04/14 09:52:21;;;;;;;;;;;14.40;99.90;;;;;;5152398;27;19937;-52
2023/04/14 09:54:53;;;;;;;;;;;14.50;99.90;;;;;;5144710;27;19919;-51
2023/04/14 09:57:25;;;;;;;;;;;14.60;99.90;;;;;;5142858;27;20005;-50
2023/04/14 09:59:51;;;;;;;;;;;14.70;99.90;;;;;;5130340;27;19925;-49
2023/04/14 10:02:16;;;;;;;;;;;14.60;99.90;;;;;;5135245;27;20284;-49
2023/04/14 10:04:42;;;;;;;;;;;14.70;99.90;;;;;;5135733;27;19930;-48
2023/04/14 10:07:07;;;;;;;;;;;14.80;99.90;;;;;;5143532;27;20384;-53
2023/04/14 10:09:34;;;;;;;;;;;14.80;99.90;;;;;;5145378;27;19919;-50
2023/04/14 10:12:17;;;;;;;;;;;14.90;99.90;;;;;;5134597;27;19919;-50
2023/04/14 10:14:43;;;;;;;;;;;14.70;99.90;;;;;;5130980;27;19919;-49
2023/04/14 10:17:09;;;;;;;;;;;14.70;99.90;;;;;;5143976;27;19934;-50
2023/04/14 10:19:35;;;;;;;;;;;14.80;99.90;;;;;;5135615;27;20292;-50
2023/04/14 10:22:01;;;;;;;;;;;14.70;99.90;;;;;;5135975;27;19927;-51
2023/04/14 10:24:26;;;;;;;;;;;14.90;99.90;;;;;;5129766;27;19923;-49
2023/04/14 10:26:52;;;;;;;;;;;15.00;99.90;;;;;;5121186;27;19926;-53
2023/04/14 10:29:18;;;;;;;;;;;15.00;99.90;;;;;;5121018;27;19931;-49
2023/04/14 10:31:49;;;;;;;;;;;15.10;99.90;;;;;;5133218;27;20374;-49
2023/04/14 10:34:15;;;;;;;;;;;15.10;99.90;;;;;;5133143;27;19971;-52
2023/04/14 10:36:41;;;;;;;;;;;15.10;99.90;;;;;;5134606;27;20420;-49
2023/04/14 10:39:08;;;;;;;;;;;15.10;99.90;;;;;;5126487;27;19919;-49
2023/04/14 10:41:43;;;;;;;;;;;15.20;99.90;;;;;;5126687;27;19919;-48
2023/04/14 10:44:27;;;;;;;;;;;15.50;99.90;;;;;;5132518;27;20300;-49
2023/04/14 10:46:56;;;;;;;;;;;15.40;99.90;;;;;;5128944;27;19919;-49
2023/04/14 10:49:29;;;;;;;;;;;15.30;99.90;;;;;;5130661;27;19924;-48
2023/04/14 10:51:58;;;;;;;;;;;15.30;99.80;;;;;;5131953;27;19919;-50
2023/04/14 10:54:24;;;;;;;;;;;15.50;99.90;;;;;;5110243;27;20020;-50
2023/04/14 10:57:11;;;;;;;;;;;15.50;99.30;;;;;;5125533;27;20384;-49
2023/04/14 10:59:41;;;;;;;;;;;15.60;99.90;;;;;;5127056;27;19919;-49
2023/04/14 11:02:26;;;;;;;;;;;15.60;99.90;;;;;;5129373;27;20408;-50
2023/04/14 11:04:59;;;;;;;;;;;15.40;99.80;;;;;;5110646;27;19924;-49
2023/04/14 11:07:27;;;;;;;;;;;15.30;98.90;;;;;;5108485;27;19920;-48
